createdAt,value
2022-09-17T00:04:54.774Z,12.01
2022-09-17T00:09:56.394Z,11.93
2022-09-17T00:14:58.077Z,12.04
2022-09-17T00:19:59.811Z,12.05
2022-09-17T00:25:01.329Z,11.98
2022-09-17T00:30:03.520Z,11.98
2022-09-17T00:35:05.876Z,11.93
2022-09-17T00:40:08.221Z,11.84
2022-09-17T00:45:10.485Z,11.97
2022-09-17T00:50:23.536Z,12.03
2022-09-17T00:55:30.194Z,11.96
2022-09-17T01:00:32.453Z,12.00
2022-09-17T01:06:21.067Z,11.98
2022-09-17T01:11:53.540Z,12.01
2022-09-17T01:17:25.016Z,11.94
2022-09-17T01:23:03.891Z,11.94
2022-09-17T01:28:29.174Z,11.89
2022-09-17T01:33:43.342Z,11.89
2022-09-17T01:38:50.449Z,11.76
2022-09-17T01:44:35.439Z,11.82
2022-09-17T01:49:39.232Z,11.80
2022-09-17T01:54:49.161Z,11.84
2022-09-17T02:00:05.429Z,11.96
2022-09-17T02:05:32.643Z,11.96
2022-09-17T02:10:41.463Z,11.94
2022-09-17T02:15:55.292Z,11.87
2022-09-17T02:21:12.091Z,11.90
2022-09-17T02:26:19.250Z,11.98
2022-09-17T02:31:21.553Z,11.98
2022-09-17T02:36:24.575Z,11.92
2022-09-17T02:41:38.639Z,11.88
2022-09-17T02:47:05.247Z,12.01
2022-09-17T02:52:37.385Z,11.86
2022-09-17T02:57:53.633Z,12.05
2022-09-17T03:03:20.753Z,11.92
2022-09-17T03:08:29.280Z,12.00
2022-09-17T03:13:31.127Z,12.04
2022-09-17T03:18:32.662Z,12.07
2022-09-17T03:23:34.082Z,11.82
2022-09-17T03:28:35.535Z,11.98
2022-09-17T03:33:36.953Z,12.02
2022-09-17T03:38:38.664Z,12.02
2022-09-17T03:43:40.103Z,11.92
2022-09-17T03:48:41.533Z,11.85
2022-09-17T03:53:43.077Z,11.64
2022-09-17T03:58:44.591Z,11.76
2022-09-17T04:03:46.120Z,11.64
2022-09-17T04:08:47.901Z,11.68
2022-09-17T04:13:49.711Z,11.62
2022-09-17T04:18:51.190Z,11.65
2022-09-17T04:23:52.623Z,11.64
2022-09-17T04:28:54.092Z,11.52
2022-09-17T04:33:55.571Z,11.65
2022-09-17T04:38:57.295Z,11.75
2022-09-17T04:43:58.817Z,11.63
2022-09-17T04:49:00.360Z,11.66
2022-09-17T04:54:01.782Z,11.65
2022-09-17T04:59:03.451Z,11.65
2022-09-17T05:04:05.220Z,11.76
2022-09-17T05:09:06.876Z,11.80
2022-09-17T05:14:08.527Z,11.78
2022-09-17T05:19:09.965Z,11.92
2022-09-17T05:24:11.533Z,11.92
2022-09-17T05:29:13.177Z,11.80
2022-09-17T05:34:14.586Z,11.99
2022-09-17T05:39:16.335Z,12.07
2022-09-17T05:44:18.651Z,12.13
2022-09-17T05:49:20.415Z,12.20
2022-09-17T05:54:21.960Z,12.29
2022-09-17T05:59:23.477Z,12.22
2022-09-17T06:04:24.904Z,12.21
2022-09-17T06:09:26.692Z,12.12
2022-09-17T06:14:28.117Z,12.02
2022-09-17T06:19:29.569Z,11.99
2022-09-17T06:24:31.666Z,12.06
2022-09-17T06:29:33.192Z,12.17
2022-09-17T06:34:34.593Z,12.10
2022-09-17T06:39:36.713Z,12.27
2022-09-17T06:44:38.288Z,12.42
2022-09-17T06:49:39.765Z,12.52
2022-09-17T06:54:41.158Z,12.50
2022-09-17T06:59:42.971Z,12.70
2022-09-17T07:04:44.469Z,12.80
2022-09-17T07:09:45.905Z,12.77
2022-09-17T07:14:47.725Z,12.91
2022-09-17T07:19:49.133Z,13.10
2022-09-17T07:24:50.634Z,13.25
2022-09-17T07:29:52.192Z,13.64
2022-09-17T07:34:53.812Z,13.74
2022-09-17T07:39:55.667Z,13.67
2022-09-17T07:45:01.293Z,13.51
2022-09-17T07:50:03.773Z,13.40
2022-09-17T07:55:05.647Z,13.26
2022-09-17T08:00:08.170Z,13.47
2022-09-17T08:05:15.374Z,13.59
2022-09-17T08:10:17.036Z,13.66
2022-09-17T08:15:19.381Z,13.94
2022-09-17T08:20:20.916Z,14.00
2022-09-17T08:25:22.434Z,13.73
2022-09-17T08:30:24.001Z,13.95
2022-09-17T08:35:28.025Z,14.18
2022-09-17T08:40:29.678Z,14.29
2022-09-17T08:45:31.297Z,14.21
2022-09-17T08:50:38.959Z,14.19
2022-09-17T08:55:51.017Z,14.28
2022-09-17T09:01:23.028Z,14.47
2022-09-17T09:06:29.858Z,14.72
2022-09-17T09:11:31.834Z,14.83
2022-09-17T09:16:37.497Z,14.68
2022-09-17T09:22:00.537Z,14.37
2022-09-17T09:27:10.545Z,14.41
2022-09-17T09:32:37.013Z,14.71
2022-09-17T09:37:42.193Z,14.67
2022-09-17T09:42:48.792Z,15.24
2022-09-17T09:48:26.640Z,15.44
2022-09-17T09:54:03.525Z,15.41
2022-09-17T09:59:10.998Z,15.52
2022-09-17T10:04:24.388Z,15.66
2022-09-17T10:09:26.100Z,15.76
2022-09-17T10:14:30.397Z,15.58
2022-09-17T10:19:31.887Z,15.66
2022-09-17T10:24:34.326Z,15.77
2022-09-17T10:29:35.912Z,15.24
2022-09-17T10:34:37.626Z,15.33
2022-09-17T10:39:48.453Z,15.17
2022-09-17T10:44:58.609Z,15.28
2022-09-17T10:50:07.527Z,15.62
2022-09-17T10:55:33.437Z,15.77
2022-09-17T11:00:49.859Z,15.68
2022-09-17T11:06:14.658Z,15.04
2022-09-17T11:11:35.028Z,14.13
2022-09-17T11:16:47.950Z,13.37
2022-09-17T11:22:30.251Z,13.78
2022-09-17T11:27:47.702Z,14.33
2022-09-17T11:33:31.705Z,14.66
2022-09-17T11:38:44.976Z,14.85
2022-09-17T11:44:12.909Z,15.06
2022-09-17T11:49:22.005Z,15.19
2022-09-17T11:54:45.732Z,15.39
2022-09-17T11:59:59.667Z,15.58
2022-09-17T12:05:08.629Z,15.81
2022-09-17T12:10:31.713Z,15.77
2022-09-17T12:15:38.362Z,16.05
2022-09-17T12:20:45.266Z,16.21
2022-09-17T12:26:00.973Z,16.13
2022-09-17T12:31:17.090Z,16.43
2022-09-17T12:36:37.480Z,16.66
2022-09-17T12:41:51.538Z,16.62
2022-09-17T12:47:11.721Z,16.48
2022-09-17T12:52:29.851Z,15.35
2022-09-17T12:58:01.038Z,14.79
2022-09-17T13:03:15.605Z,14.33
2022-09-17T13:08:44.568Z,13.97
2022-09-17T13:14:25.250Z,14.44
2022-09-17T13:19:52.792Z,14.78
2022-09-17T13:25:12.588Z,15.02
2022-09-17T13:30:15.975Z,15.40
2022-09-17T13:35:17.407Z,15.77
2022-09-17T13:40:30.934Z,15.78
2022-09-17T13:45:34.369Z,15.53
2022-09-17T13:50:44.160Z,15.10
2022-09-17T13:56:01.086Z,13.72
2022-09-17T14:01:07.614Z,13.35
2022-09-17T14:06:09.160Z,13.20
2022-09-17T14:11:42.662Z,13.84
2022-09-17T14:16:45.880Z,14.19
2022-09-17T14:22:05.882Z,14.31
2022-09-17T14:27:12.227Z,14.43
2022-09-17T14:32:27.674Z,14.21
2022-09-17T14:37:29.746Z,13.99
2022-09-17T14:42:36.449Z,13.95
2022-09-17T14:47:37.852Z,13.82
2022-09-17T14:52:39.252Z,13.85
2022-09-17T14:57:40.752Z,14.40
2022-09-17T15:02:45.403Z,14.71
2022-09-17T15:07:47.837Z,14.67
2022-09-17T15:12:51.389Z,14.85
2022-09-17T15:17:54.405Z,14.88
2022-09-17T15:23:00.265Z,14.70
2022-09-17T15:28:26.482Z,14.93
2022-09-17T15:33:31.454Z,15.03
2022-09-17T15:38:33.078Z,15.13
2022-09-17T15:43:34.587Z,15.25
2022-09-17T15:48:39.409Z,15.42
2022-09-17T15:53:52.397Z,15.36
2022-09-17T15:59:21.344Z,15.39
2022-09-17T16:04:30.956Z,15.55
2022-09-17T16:09:43.067Z,15.31
2022-09-17T16:14:46.627Z,15.35
2022-09-17T16:19:48.338Z,15.13
2022-09-17T16:24:49.888Z,15.10
2022-09-17T16:29:56.464Z,15.09
2022-09-17T16:34:58.155Z,15.21
2022-09-17T16:40:00.858Z,15.21
2022-09-17T16:45:03.845Z,15.22
2022-09-17T16:50:07.995Z,14.98
2022-09-17T16:55:10.921Z,14.95
2022-09-17T17:00:16.405Z,14.85
2022-09-17T17:05:18.413Z,14.87
2022-09-17T17:10:20.217Z,14.81
2022-09-17T17:15:22.454Z,14.76
2022-09-17T17:20:23.945Z,14.64
2022-09-17T17:25:26.994Z,14.53
2022-09-17T17:30:34.223Z,14.54
2022-09-17T17:35:39.421Z,14.44
2022-09-17T17:40:40.905Z,14.45
2022-09-17T17:45:42.385Z,14.50
2022-09-17T17:50:43.833Z,14.52
2022-09-17T17:55:57.045Z,14.47
2022-09-17T18:00:59.137Z,14.55
2022-09-17T18:06:00.596Z,14.61
2022-09-17T18:11:04.040Z,14.51
2022-09-17T18:16:08.670Z,14.45
2022-09-17T18:21:13.129Z,14.43
2022-09-17T18:26:18.861Z,14.31
2022-09-17T18:31:24.983Z,14.39
2022-09-17T18:36:28.957Z,14.38
2022-09-17T18:41:32.697Z,14.34
2022-09-17T18:46:34.804Z,14.28
2022-09-17T18:51:37.803Z,14.34
2022-09-17T18:56:41.322Z,14.32
2022-09-17T19:01:43.005Z,14.25
2022-09-17T19:06:45.257Z,14.24
2022-09-17T19:11:46.919Z,14.18
2022-09-17T19:16:48.947Z,14.11
2022-09-17T19:21:50.730Z,14.10
2022-09-17T19:26:52.636Z,14.15
2022-09-17T19:31:54.200Z,14.03
2022-09-17T19:36:55.974Z,14.07
2022-09-17T19:41:58.044Z,13.98
2022-09-17T19:46:59.594Z,14.01
2022-09-17T19:52:01.296Z,13.98
2022-09-17T19:57:02.731Z,14.00
2022-09-17T20:02:04.627Z,13.88
2022-09-17T20:07:06.268Z,13.87
2022-09-17T20:12:07.806Z,13.96
2022-09-17T20:17:09.309Z,13.78
2022-09-17T20:22:10.865Z,13.98
2022-09-17T20:27:12.252Z,13.85
2022-09-17T20:32:13.837Z,13.84
2022-09-17T20:37:16.116Z,13.92
2022-09-17T20:42:20.501Z,13.94
2022-09-17T20:47:22.058Z,13.92
2022-09-17T20:52:23.490Z,13.68
2022-09-17T20:57:25.398Z,13.48
2022-09-17T21:02:27.384Z,13.40
2022-09-17T21:07:28.797Z,13.28
2022-09-17T21:12:30.389Z,13.40
2022-09-17T21:17:32.046Z,13.32
2022-09-17T21:22:33.465Z,13.29
2022-09-17T21:27:34.935Z,13.25
2022-09-17T21:32:37.745Z,13.17
2022-09-17T21:37:39.147Z,13.03
2022-09-17T21:42:40.634Z,13.05
2022-09-17T21:47:42.088Z,13.04
2022-09-17T21:52:43.488Z,13.10
2022-09-17T21:57:45.031Z,13.03
2022-09-17T22:02:46.515Z,13.06
2022-09-17T22:07:48.251Z,13.03
2022-09-17T22:12:49.704Z,13.19
2022-09-17T22:17:51.376Z,13.07
2022-09-17T22:22:52.947Z,13.00
2022-09-17T22:28:19.436Z,13.00
2022-09-17T22:33:15.917Z,13.14
2022-09-17T22:38:17.321Z,13.15
2022-09-17T22:43:19.075Z,13.13
2022-09-17T22:48:20.957Z,13.25
2022-09-17T22:53:22.716Z,13.08
2022-09-17T22:58:24.691Z,13.25
2022-09-17T23:03:27.350Z,13.11
2022-09-17T23:08:29.080Z,13.24
2022-09-17T23:13:31.221Z,13.18
2022-09-17T23:18:35.266Z,13.14
2022-09-17T23:23:37.426Z,13.11
2022-09-17T23:28:39.378Z,13.05
2022-09-17T23:33:41.558Z,12.91
2022-09-17T23:38:44.691Z,13.04
2022-09-17T23:43:51.366Z,12.91
2022-09-17T23:48:56.008Z,13.01
2022-09-17T23:53:58.297Z,13.02
2022-09-17T23:59:01.193Z,12.94
